createdAt,value
2018-09-25T00:01:45.881Z,15.60
2018-09-25T00:04:20.636Z,15.60
2018-09-25T00:06:55.359Z,15.40
2018-09-25T00:09:30.079Z,15.50
2018-09-25T00:12:04.883Z,15.60
2018-09-25T00:14:39.409Z,15.50
2018-09-25T00:17:14.038Z,15.60
2018-09-25T00:19:48.608Z,15.50
2018-09-25T00:22:23.343Z,15.20
2018-09-25T00:24:58.042Z,15.40
2018-09-25T00:27:32.626Z,15.40
2018-09-25T00:30:07.423Z,15.40
2018-09-25T00:32:42.118Z,15.30
2018-09-25T00:35:16.855Z,15.30
2018-09-25T00:37:51.609Z,15.20
2018-09-25T00:40:26.300Z,15.20
2018-09-25T00:43:01.016Z,15.30
2018-09-25T00:45:35.595Z,15.40
2018-09-25T00:48:10.252Z,15.30
2018-09-25T00:50:44.956Z,15.20
2018-09-25T00:53:19.610Z,15.30
2018-09-25T00:55:54.217Z,15.20
2018-09-25T00:58:28.870Z,15.30
2018-09-25T01:01:03.652Z,15.20
2018-09-25T01:03:38.435Z,15.30
2018-09-25T01:06:13.227Z,15.30
2018-09-25T01:08:47.735Z,15.30
2018-09-25T01:11:22.415Z,15.30
2018-09-25T01:13:57.319Z,15.30
2018-09-25T01:16:32.064Z,15.50
2018-09-25T01:19:06.721Z,15.40
2018-09-25T01:21:41.292Z,15.20
2018-09-25T01:24:15.792Z,15.20
2018-09-25T01:26:50.621Z,15.10
2018-09-25T01:29:25.386Z,15.00
2018-09-25T01:32:00.162Z,15.00
2018-09-25T01:34:34.741Z,15.00
2018-09-25T01:37:09.331Z,15.00
2018-09-25T01:39:43.870Z,14.90
2018-09-25T01:42:18.583Z,14.80
2018-09-25T01:44:53.238Z,14.80
2018-09-25T01:47:27.911Z,15.00
2018-09-25T01:50:02.601Z,15.10
2018-09-25T01:52:37.217Z,15.10
2018-09-25T01:55:11.893Z,15.10
2018-09-25T01:57:46.499Z,14.90
2018-09-25T02:00:21.123Z,14.90
2018-09-25T02:02:55.793Z,14.80
2018-09-25T02:05:30.411Z,14.80
2018-09-25T02:08:04.990Z,15.00
2018-09-25T02:10:39.687Z,15.00
2018-09-25T02:13:14.453Z,14.80
2018-09-25T02:15:49.174Z,14.70
2018-09-25T02:18:23.705Z,14.70
2018-09-25T02:20:58.321Z,14.80
2018-09-25T02:23:33.176Z,14.30
2018-09-25T02:26:07.843Z,14.30
2018-09-25T02:28:42.488Z,14.40
2018-09-25T02:31:17.102Z,14.50
2018-09-25T02:33:51.726Z,14.40
2018-09-25T02:36:26.480Z,14.40
2018-09-25T02:39:01.171Z,14.40
2018-09-25T02:41:35.828Z,14.40
2018-09-25T02:44:10.569Z,14.30
2018-09-25T02:46:51.585Z,14.30
2018-09-25T02:49:26.280Z,14.30
2018-09-25T02:52:00.990Z,14.20
2018-09-25T02:54:35.605Z,14.20
2018-09-25T02:57:10.264Z,14.30
2018-09-25T02:59:44.934Z,14.40
2018-09-25T03:02:19.687Z,14.30
2018-09-25T03:04:54.453Z,14.20
2018-09-25T03:07:29.212Z,14.30
2018-09-25T03:10:03.945Z,14.10
2018-09-25T03:12:38.586Z,14.10
2018-09-25T03:15:13.299Z,14.00
2018-09-25T03:17:47.999Z,14.10
2018-09-25T03:20:22.712Z,14.00
2018-09-25T03:22:57.542Z,14.10
2018-09-25T03:28:13.130Z,14.20
2018-09-25T03:30:48.310Z,14.20
2018-09-25T03:33:23.103Z,14.00
2018-09-25T03:35:58.040Z,14.10
2018-09-25T03:38:32.792Z,14.10
2018-09-25T03:41:07.432Z,14.10
2018-09-25T03:43:42.391Z,14.00
2018-09-25T03:46:17.182Z,14.00
2018-09-25T03:48:52.002Z,14.10
2018-09-25T03:51:26.788Z,14.00
2018-09-25T03:54:01.625Z,13.90
2018-09-25T03:56:36.557Z,13.90
2018-09-25T03:59:11.724Z,13.90
2018-09-25T04:04:51.741Z,13.80
2018-09-25T04:07:44.639Z,13.90
2018-09-25T04:10:39.052Z,13.80
2018-09-25T04:13:19.579Z,13.80
2018-09-25T04:15:59.858Z,13.80
2018-09-25T04:18:40.211Z,13.50
2018-09-25T04:21:15.193Z,13.50
2018-09-25T04:23:49.956Z,13.50
2018-09-25T04:26:24.787Z,13.60
2018-09-25T04:31:35.006Z,13.50
2018-09-25T04:34:09.841Z,13.60
2018-09-25T04:36:44.475Z,13.40
2018-09-25T04:39:19.304Z,13.60
2018-09-25T04:41:53.991Z,13.40
2018-09-25T04:44:29.955Z,13.40
2018-09-25T04:47:09.341Z,13.40
2018-09-25T04:49:46.362Z,13.40
2018-09-25T04:52:21.086Z,13.40
2018-09-25T04:54:56.649Z,13.20
2018-09-25T04:57:31.686Z,13.20
2018-09-25T05:00:07.198Z,13.30
2018-09-25T05:02:42.670Z,13.30
2018-09-25T05:05:21.387Z,13.40
2018-09-25T05:08:00.545Z,13.40
2018-09-25T05:10:40.358Z,13.20
2018-09-25T05:13:20.205Z,13.20
2018-09-25T05:16:00.111Z,13.10
2018-09-25T05:21:19.631Z,13.30
2018-09-25T05:24:00.530Z,13.10
2018-09-25T05:26:39.042Z,13.30
2018-09-25T05:29:18.021Z,13.20
2018-09-25T05:31:57.186Z,13.20
2018-09-25T05:34:36.939Z,13.20
2018-09-25T05:37:12.268Z,13.20
2018-09-25T05:39:47.037Z,13.40
2018-09-25T05:42:21.838Z,13.40
2018-09-25T05:47:47.700Z,13.70
2018-09-25T05:52:56.580Z,13.60
2018-09-25T05:55:31.414Z,13.60
2018-09-25T05:58:06.046Z,13.80
2018-09-25T06:00:40.997Z,13.80
2018-09-25T06:03:24.442Z,13.90
2018-09-25T06:05:59.173Z,14.10
2018-09-25T06:08:33.856Z,14.00
2018-09-25T06:11:09.262Z,14.20
2018-09-25T06:13:44.008Z,14.30
2018-09-25T06:16:19.965Z,14.40
2018-09-25T06:18:54.694Z,14.70
2018-09-25T06:21:29.327Z,14.80
2018-09-25T06:24:21.197Z,15.00
2018-09-25T06:27:09.192Z,15.00
2018-09-25T06:29:43.937Z,15.10
2018-09-25T06:32:18.551Z,15.20
2018-09-25T06:34:53.452Z,15.30
2018-09-25T06:37:28.173Z,15.40
2018-09-25T06:40:03.689Z,15.40
2018-09-25T06:42:38.561Z,15.60
2018-09-25T06:45:13.397Z,15.70
2018-09-25T06:47:48.040Z,15.70
2018-09-25T06:50:24.884Z,15.80
2018-09-25T06:53:00.000Z,16.00
2018-09-25T06:55:34.782Z,16.00
2018-09-25T06:58:09.509Z,16.20
2018-09-25T07:00:44.398Z,16.30
2018-09-25T07:03:21.340Z,16.30
2018-09-25T07:05:56.041Z,16.40
2018-09-25T07:08:30.698Z,16.40
2018-09-25T07:11:05.220Z,16.40
2018-09-25T07:13:40.151Z,16.40
2018-09-25T07:16:14.796Z,16.40
2018-09-25T07:18:49.594Z,16.50
2018-09-25T07:21:24.216Z,16.70
2018-09-25T07:23:58.942Z,16.80
2018-09-25T07:26:33.599Z,16.90
2018-09-25T07:29:08.428Z,17.00
2018-09-25T07:31:43.109Z,16.80
2018-09-25T07:34:17.757Z,17.10
2018-09-25T07:36:52.366Z,17.10
2018-09-25T07:39:26.869Z,17.00
2018-09-25T07:42:01.453Z,17.20
2018-09-25T07:44:36.081Z,17.20
2018-09-25T07:47:10.821Z,17.20
2018-09-25T07:49:45.568Z,17.10
2018-09-25T07:52:20.254Z,17.30
2018-09-25T07:54:54.954Z,17.40
2018-09-25T07:57:29.612Z,17.20
2018-09-25T08:00:04.370Z,17.20
2018-09-25T08:02:39.031Z,17.40
2018-09-25T08:05:13.848Z,17.50
2018-09-25T08:07:48.659Z,17.50
2018-09-25T08:10:23.323Z,17.60
2018-09-25T08:12:58.802Z,17.70
2018-09-25T08:15:33.554Z,17.90
2018-09-25T08:18:08.303Z,17.80
2018-09-25T08:20:42.979Z,17.80
2018-09-25T08:23:17.662Z,17.60
2018-09-25T08:25:52.289Z,18.00
2018-09-25T08:28:27.379Z,17.90
2018-09-25T08:31:02.082Z,17.90
2018-09-25T08:33:36.669Z,18.00
2018-09-25T08:36:11.286Z,18.10
2018-09-25T08:38:45.831Z,18.00
2018-09-25T08:41:20.468Z,18.20
2018-09-25T08:43:54.968Z,18.20
2018-09-25T08:46:29.643Z,18.30
2018-09-25T08:49:04.390Z,18.40
2018-09-25T08:51:39.207Z,18.30
2018-09-25T08:54:13.903Z,18.40
2018-09-25T08:56:48.531Z,18.50
2018-09-25T08:59:23.440Z,18.60
2018-09-25T09:01:57.952Z,18.70
2018-09-25T09:04:32.889Z,18.60
2018-09-25T09:07:07.661Z,18.70
2018-09-25T09:09:42.403Z,18.90
2018-09-25T09:12:17.001Z,19.10
2018-09-25T09:14:51.530Z,19.10
2018-09-25T09:17:26.278Z,18.90
2018-09-25T09:20:01.164Z,18.90
2018-09-25T09:22:35.830Z,18.80
2018-09-25T09:25:10.894Z,18.90
2018-09-25T09:27:45.778Z,19.20
2018-09-25T09:30:20.373Z,19.40
2018-09-25T09:32:55.194Z,19.30
2018-09-25T09:35:29.843Z,19.30
2018-09-25T09:38:04.495Z,19.20
2018-09-25T09:40:41.794Z,19.40
2018-09-25T09:43:16.631Z,19.50
2018-09-25T09:45:51.362Z,19.50
2018-09-25T09:48:26.184Z,19.70
2018-09-25T09:51:00.820Z,19.50
2018-09-25T09:53:35.296Z,19.80
2018-09-25T09:56:09.917Z,20.00
2018-09-25T09:58:44.542Z,20.00
2018-09-25T10:01:19.271Z,19.80
2018-09-25T10:03:53.915Z,19.90
2018-09-25T10:06:28.645Z,19.80
2018-09-25T10:09:03.351Z,20.10
2018-09-25T10:11:38.118Z,20.40
2018-09-25T10:14:13.020Z,20.40
2018-09-25T10:16:47.824Z,20.50
2018-09-25T10:19:23.258Z,20.40
2018-09-25T10:21:58.086Z,20.50
2018-09-25T10:24:32.722Z,20.80
2018-09-25T10:27:07.272Z,20.20
2018-09-25T10:29:42.115Z,20.30
2018-09-25T10:32:16.688Z,20.30
2018-09-25T10:34:58.313Z,20.60
2018-09-25T10:37:32.939Z,20.60
2018-09-25T10:40:07.594Z,19.80
2018-09-25T10:42:42.518Z,19.80
2018-09-25T10:45:17.082Z,20.40
2018-09-25T10:47:51.690Z,21.30
2018-09-25T10:50:26.491Z,21.30
2018-09-25T10:53:01.162Z,21.30
2018-09-25T10:55:35.837Z,21.20
2018-09-25T10:58:10.607Z,21.30
2018-09-25T11:00:45.312Z,21.60
2018-09-25T11:03:20.043Z,20.50
2018-09-25T11:05:54.753Z,20.40
2018-09-25T11:08:29.536Z,21.20
2018-09-25T11:11:04.141Z,21.70
2018-09-25T11:13:39.759Z,21.90
2018-09-25T11:16:14.531Z,22.00
2018-09-25T11:18:49.434Z,22.10
2018-09-25T11:21:24.130Z,21.80
2018-09-25T11:23:58.787Z,21.80
2018-09-25T11:26:33.482Z,21.60
2018-09-25T11:29:08.088Z,20.70
2018-09-25T11:31:42.772Z,20.80
2018-09-25T11:34:17.656Z,21.50
2018-09-25T11:36:52.330Z,22.30
2018-09-25T11:39:27.174Z,22.10
2018-09-25T11:42:01.867Z,22.60
2018-09-25T11:44:36.657Z,22.90
2018-09-25T11:47:11.417Z,23.10
2018-09-25T11:49:46.360Z,23.20
2018-09-25T11:52:21.030Z,22.90
2018-09-25T11:54:56.908Z,23.20
2018-09-25T11:57:31.512Z,23.00
2018-09-25T12:00:06.255Z,23.20
2018-09-25T12:02:40.894Z,23.30
2018-09-25T12:05:15.810Z,22.90
2018-09-25T12:07:50.873Z,23.40
2018-09-25T12:10:25.552Z,24.30
2018-09-25T12:13:00.235Z,24.00
2018-09-25T12:15:35.825Z,23.90
2018-09-25T12:18:10.471Z,23.70
2018-09-25T12:20:45.327Z,23.50
2018-09-25T12:23:20.080Z,23.60
2018-09-25T12:25:54.825Z,24.40
2018-09-25T12:28:29.439Z,24.30
2018-09-25T12:31:04.324Z,24.70
2018-09-25T12:33:39.153Z,24.50
2018-09-25T12:36:14.047Z,23.70
2018-09-25T12:38:48.773Z,24.30
2018-09-25T12:41:23.470Z,24.80
2018-09-25T12:43:58.264Z,23.60
2018-09-25T12:46:32.950Z,23.40
2018-09-25T12:49:07.431Z,24.30
2018-09-25T12:51:42.102Z,24.80
2018-09-25T12:54:16.810Z,24.20
2018-09-25T12:56:51.532Z,23.60
2018-09-25T12:59:26.156Z,24.50
2018-09-25T13:02:00.735Z,25.10
2018-09-25T13:04:35.203Z,25.10
2018-09-25T13:07:09.948Z,25.10
2018-09-25T13:09:44.753Z,25.40
2018-09-25T13:12:19.501Z,24.30
2018-09-25T13:14:54.233Z,24.90
2018-09-25T13:17:29.089Z,24.60
2018-09-25T13:20:03.637Z,25.20
2018-09-25T13:22:38.460Z,25.00
2018-09-25T13:25:13.297Z,24.90
2018-09-25T13:27:48.013Z,25.10
2018-09-25T13:30:22.639Z,25.40
2018-09-25T13:32:57.441Z,25.30
2018-09-25T13:35:32.149Z,25.40
2018-09-25T13:38:06.826Z,25.60
2018-09-25T13:40:41.589Z,24.90
2018-09-25T13:43:16.259Z,24.90
2018-09-25T13:45:50.908Z,24.80
2018-09-25T13:48:25.646Z,24.60
2018-09-25T13:51:00.311Z,24.90
2018-09-25T13:53:34.893Z,24.90
2018-09-25T13:56:09.586Z,24.70
2018-09-25T13:58:44.248Z,25.30
2018-09-25T14:01:18.846Z,24.30
2018-09-25T14:03:53.703Z,24.20
2018-09-25T14:06:28.435Z,24.10
2018-09-25T14:09:03.130Z,24.80
2018-09-25T14:11:37.766Z,24.70
2018-09-25T14:14:12.373Z,25.10
2018-09-25T14:16:46.981Z,25.40
2018-09-25T14:19:21.754Z,25.50
2018-09-25T14:21:56.442Z,26.20
2018-09-25T14:24:31.046Z,24.80
2018-09-25T14:27:05.712Z,25.70
2018-09-25T14:29:40.450Z,25.10
2018-09-25T14:32:15.102Z,24.50
2018-09-25T14:34:49.856Z,24.30
2018-09-25T14:37:28.525Z,24.30
2018-09-25T14:40:04.149Z,24.40
2018-09-25T14:42:41.313Z,24.60
2018-09-25T14:45:16.123Z,24.90
2018-09-25T14:47:50.915Z,24.40
2018-09-25T14:50:25.545Z,24.30
2018-09-25T14:53:00.328Z,24.40
2018-09-25T14:55:35.093Z,23.40
2018-09-25T14:58:09.726Z,24.60
2018-09-25T15:00:46.087Z,24.80
2018-09-25T15:03:20.691Z,24.30
2018-09-25T15:05:55.953Z,24.60
2018-09-25T15:08:35.936Z,24.90
2018-09-25T15:11:10.764Z,24.90
2018-09-25T15:13:45.504Z,24.90
2018-09-25T15:16:21.489Z,25.00
2018-09-25T15:18:56.932Z,24.90
2018-09-25T15:21:31.932Z,24.90
2018-09-25T15:24:06.598Z,24.60
2018-09-25T15:26:41.480Z,24.10
2018-09-25T15:29:16.526Z,22.50
2018-09-25T15:31:51.353Z,22.50
2018-09-25T15:34:26.022Z,23.00
2018-09-25T15:37:00.904Z,23.00
2018-09-25T15:39:35.601Z,23.60
2018-09-25T15:42:10.489Z,23.30
2018-09-25T15:44:45.023Z,22.90
2018-09-25T15:47:19.850Z,23.20
2018-09-25T15:49:54.588Z,23.40
2018-09-25T15:52:29.301Z,23.80
2018-09-25T15:55:04.010Z,23.60
2018-09-25T15:57:38.646Z,23.90
2018-09-25T16:00:13.756Z,23.70
2018-09-25T16:02:48.604Z,23.90
2018-09-25T16:05:23.275Z,23.80
2018-09-25T16:07:58.415Z,23.90
2018-09-25T16:10:33.244Z,23.70
2018-09-25T16:13:08.111Z,23.10
2018-09-25T16:15:43.149Z,22.30
2018-09-25T16:18:18.073Z,21.80
2018-09-25T16:20:52.815Z,21.70
2018-09-25T16:23:27.656Z,21.60
2018-09-25T16:26:02.545Z,21.50
2018-09-25T16:28:37.311Z,21.60
2018-09-25T16:31:12.015Z,21.40
2018-09-25T16:33:46.953Z,21.30
2018-09-25T16:36:21.815Z,21.20
2018-09-25T16:38:56.528Z,21.10
2018-09-25T16:41:31.307Z,20.90
2018-09-25T16:44:05.993Z,20.50
2018-09-25T16:46:40.568Z,20.20
2018-09-25T16:49:15.203Z,20.00
2018-09-25T16:51:49.842Z,19.80
2018-09-25T16:54:24.462Z,19.70
2018-09-25T16:56:59.088Z,19.60
2018-09-25T16:59:33.838Z,19.50
2018-09-25T17:02:08.511Z,19.40
2018-09-25T17:04:43.093Z,19.40
2018-09-25T17:07:17.788Z,19.20
2018-09-25T17:09:52.951Z,19.10
2018-09-25T17:12:27.724Z,19.10
2018-09-25T17:15:02.486Z,19.50
2018-09-25T17:17:37.068Z,19.20
2018-09-25T17:20:12.063Z,19.00
2018-09-25T17:22:46.726Z,19.00
2018-09-25T17:25:21.409Z,18.80
2018-09-25T17:27:56.118Z,18.60
2018-09-25T17:30:31.073Z,18.70
2018-09-25T17:33:06.147Z,18.80
2018-09-25T17:35:40.946Z,18.80
2018-09-25T17:38:15.634Z,18.80
2018-09-25T17:43:43.821Z,18.60
2018-09-25T17:46:18.610Z,18.70
2018-09-25T17:48:53.295Z,18.50
2018-09-25T17:51:27.905Z,18.50
2018-09-25T17:54:02.665Z,18.30
2018-09-25T17:56:37.517Z,18.20
2018-09-25T17:59:12.265Z,18.00
2018-09-25T18:01:47.077Z,17.90
2018-09-25T18:04:21.762Z,17.70
2018-09-25T18:06:56.463Z,17.90
2018-09-25T18:09:31.133Z,17.90
2018-09-25T18:12:05.880Z,18.10
2018-09-25T18:14:40.457Z,17.80
2018-09-25T18:17:15.111Z,17.50
2018-09-25T18:19:49.910Z,17.30
2018-09-25T18:22:24.712Z,17.30
2018-09-25T18:24:59.476Z,17.30
2018-09-25T18:27:34.160Z,17.00
2018-09-25T18:30:08.761Z,16.90
2018-09-25T18:32:43.654Z,16.90
2018-09-25T18:35:19.712Z,16.90
2018-09-25T18:37:55.668Z,17.00
2018-09-25T18:40:31.684Z,16.90
2018-09-25T18:43:06.993Z,16.80
2018-09-25T18:45:42.939Z,16.90
2018-09-25T18:48:17.964Z,16.80
2018-09-25T18:50:52.708Z,16.60
2018-09-25T18:53:27.412Z,16.50
2018-09-25T18:56:02.061Z,16.50
2018-09-25T18:58:36.790Z,16.20
2018-09-25T19:01:11.715Z,16.00
2018-09-25T19:03:46.381Z,16.00
2018-09-25T19:06:21.265Z,16.00
2018-09-25T19:08:55.983Z,15.90
2018-09-25T19:11:30.604Z,16.00
2018-09-25T19:14:05.274Z,15.90
2018-09-25T19:16:39.953Z,13.40
2018-09-25T19:19:14.677Z,15.80
2018-09-25T19:21:49.638Z,16.00
2018-09-25T19:24:24.491Z,15.90
2018-09-25T19:26:59.341Z,15.90
2018-09-25T19:29:34.082Z,16.10
2018-09-25T19:32:08.769Z,15.90
2018-09-25T19:34:43.435Z,15.90
2018-09-25T19:37:18.116Z,15.90
2018-09-25T19:39:52.786Z,15.90
2018-09-25T19:42:27.558Z,15.80
2018-09-25T19:45:02.279Z,15.60
2018-09-25T19:47:36.933Z,15.40
2018-09-25T19:50:11.749Z,15.40
2018-09-25T19:52:46.234Z,15.50
2018-09-25T19:55:21.160Z,15.50
2018-09-25T19:57:55.771Z,15.50
2018-09-25T20:00:30.614Z,15.60
2018-09-25T20:03:05.208Z,15.60
2018-09-25T20:05:39.944Z,15.60
2018-09-25T20:08:14.666Z,15.60
2018-09-25T20:10:49.214Z,15.60
2018-09-25T20:13:23.972Z,15.60
2018-09-25T20:15:58.558Z,15.60
2018-09-25T20:18:33.199Z,15.70
2018-09-25T20:21:07.941Z,15.50
2018-09-25T20:23:42.615Z,15.50
2018-09-25T20:26:17.192Z,15.60
2018-09-25T20:28:51.759Z,15.40
2018-09-25T20:31:26.634Z,15.50
2018-09-25T20:34:01.289Z,15.40
2018-09-25T20:36:35.858Z,15.50
2018-09-25T20:39:10.989Z,15.50
2018-09-25T20:41:45.557Z,15.60
2018-09-25T20:44:20.342Z,15.40
2018-09-25T20:46:55.020Z,15.30
2018-09-25T20:49:29.598Z,15.60
2018-09-25T20:52:04.250Z,15.50
2018-09-25T20:54:38.943Z,15.50
2018-09-25T20:57:13.801Z,15.40
2018-09-25T20:59:48.500Z,15.50
2018-09-25T21:02:23.297Z,15.40
2018-09-25T21:04:57.829Z,15.30
2018-09-25T21:07:32.414Z,15.30
2018-09-25T21:10:07.039Z,15.20
2018-09-25T21:12:41.650Z,15.20
2018-09-25T21:15:16.310Z,15.00
2018-09-25T21:17:50.878Z,15.10
2018-09-25T21:20:25.599Z,15.10
2018-09-25T21:23:00.348Z,15.20
2018-09-25T21:25:34.927Z,15.10
2018-09-25T21:28:09.639Z,15.00
2018-09-25T21:30:44.339Z,15.10
2018-09-25T21:33:19.206Z,14.90
2018-09-25T21:35:53.878Z,14.90
2018-09-25T21:38:28.696Z,14.90
2018-09-25T21:41:03.350Z,14.90
2018-09-25T21:43:38.216Z,14.80
2018-09-25T21:46:12.882Z,14.80
2018-09-25T21:48:47.571Z,14.80
2018-09-25T21:51:22.413Z,14.70
2018-09-25T21:53:57.010Z,14.80
2018-09-25T21:56:31.665Z,14.80
2018-09-25T21:59:06.222Z,14.70
2018-09-25T22:01:40.980Z,14.60
2018-09-25T22:04:15.719Z,14.60
2018-09-25T22:06:50.450Z,14.50
2018-09-25T22:09:25.121Z,14.50
2018-09-25T22:11:59.770Z,14.40
2018-09-25T22:14:34.497Z,14.40
2018-09-25T22:17:09.217Z,14.50
2018-09-25T22:19:43.863Z,14.50
2018-09-25T22:22:18.505Z,14.50
2018-09-25T22:24:53.337Z,14.40
2018-09-25T22:27:28.025Z,14.30
2018-09-25T22:30:02.861Z,14.30
2018-09-25T22:32:37.620Z,14.20
2018-09-25T22:35:12.504Z,14.40
2018-09-25T22:37:47.197Z,14.20
2018-09-25T22:40:21.699Z,14.30
2018-09-25T22:42:56.242Z,14.20
2018-09-25T22:45:30.929Z,14.20
2018-09-25T22:48:05.667Z,14.20
2018-09-25T22:50:40.337Z,14.30
2018-09-25T22:53:14.991Z,14.30
2018-09-25T22:55:49.498Z,14.10
2018-09-25T22:58:24.098Z,14.00
2018-09-25T23:00:58.953Z,14.10
2018-09-25T23:03:33.550Z,14.10
2018-09-25T23:06:08.140Z,14.10
2018-09-25T23:08:42.814Z,14.20
2018-09-25T23:11:17.433Z,14.00
2018-09-25T23:13:51.918Z,14.00
2018-09-25T23:16:26.751Z,14.10
2018-09-25T23:19:01.397Z,14.20
2018-09-25T23:21:36.099Z,14.00
2018-09-25T23:24:10.758Z,14.00
2018-09-25T23:26:45.341Z,14.10
2018-09-25T23:29:19.976Z,14.10
2018-09-25T23:31:54.828Z,14.10
2018-09-25T23:34:29.485Z,14.10
2018-09-25T23:37:04.093Z,14.00
2018-09-25T23:39:38.764Z,14.00
2018-09-25T23:43:17.656Z,13.90
2018-09-25T23:46:50.227Z,13.70
2018-09-25T23:49:24.091Z,13.80
2018-09-25T23:52:02.096Z,13.80
2018-09-25T23:54:35.586Z,13.60
2018-09-25T23:57:10.456Z,13.60
2018-09-25T23:59:47.555Z,13.70
